Time;durP1;ratioP1;P1;durP2;ratioP2;P2;SDS_P1;SDS_P2;PMS_P1;PMS_P2;Temp;Humidity;BMP_temperature;BMP_pressure;BME280_temperature;BME280_humidity;BME280_pressure;Samples;Min_cycle;Max_cycle;Signal;HPM_P1;HPM_P2
2022/10/17 00:01:08;;;;;;;18.47;16.63;;;15.50;99.90;;;;;;5113348;27;20771;-67
2022/10/17 00:03:36;;;;;;;17.57;16.27;;;15.50;99.90;;;;;;5110422;27;20463;-70
2022/10/17 00:06:08;;;;;;;27.67;16.00;;;15.50;99.90;;;;;;5113617;27;20472;-68
2022/10/17 00:08:36;;;;;;;19.43;17.53;;;15.50;99.90;;;;;;5111590;27;20461;-69
2022/10/17 00:11:06;;;;;;;17.03;15.40;;;15.60;99.90;;;;;;5113667;27;20467;-69
2022/10/17 00:13:34;;;;;;;17.30;15.50;;;15.60;99.90;;;;;;5111864;27;20475;-70
2022/10/17 00:16:01;;;;;;;18.17;15.67;;;15.60;99.90;;;;;;5110697;27;20548;-69
2022/10/17 00:18:28;;;;;;;16.40;14.73;;;15.60;99.90;;;;;;5113115;27;20451;-69
2022/10/17 00:20:56;;;;;;;18.37;15.93;;;15.60;99.90;;;;;;5113909;27;20847;-69
2022/10/17 00:23:26;;;;;;;16.73;15.50;;;15.70;99.90;;;;;;5111615;27;20491;-68
2022/10/17 00:26:00;;;;;;;17.70;15.90;;;15.70;99.90;;;;;;5115118;27;20461;-68
2022/10/17 00:28:26;;;;;;;16.67;15.13;;;15.70;99.90;;;;;;5087426;28;20505;-69
2022/10/17 00:30:57;;;;;;;17.03;15.53;;;15.70;99.90;;;;;;5085622;28;21009;-67
2022/10/17 00:33:24;;;;;;;21.43;16.63;;;15.70;99.90;;;;;;5093068;28;20469;-68
2022/10/17 00:35:51;;;;;;;17.13;15.43;;;15.60;99.90;;;;;;5090654;28;20825;-68
2022/10/17 00:38:18;;;;;;;17.00;15.57;;;15.60;99.90;;;;;;5082780;28;20963;-67
2022/10/17 00:40:45;;;;;;;20.80;15.27;;;15.60;99.90;;;;;;5083557;28;21015;-68
2022/10/17 00:43:17;;;;;;;17.23;15.93;;;15.60;99.90;;;;;;5086708;28;20829;-68
2022/10/17 00:45:45;;;;;;;19.30;14.83;;;15.60;99.90;;;;;;5081363;28;20459;-68
2022/10/17 00:48:14;;;;;;;16.87;15.13;;;15.60;99.90;;;;;;5093121;28;21215;-69
2022/10/17 00:50:45;;;;;;;16.97;15.30;;;15.50;99.90;;;;;;5086081;28;20865;-70
2022/10/17 00:53:12;;;;;;;27.47;15.87;;;15.50;99.90;;;;;;5082120;28;20541;-69
2022/10/17 00:55:46;;;;;;;16.30;15.00;;;15.50;99.90;;;;;;5081848;28;20494;-68
2022/10/17 00:58:14;;;;;;;16.17;14.80;;;15.40;99.90;;;;;;5074028;28;20466;-68
2022/10/17 01:00:43;;;;;;;17.30;15.83;;;15.40;99.90;;;;;;5085221;28;20450;-69
2022/10/17 01:03:10;;;;;;;16.00;14.70;;;15.40;99.90;;;;;;5080942;28;21000;-68
2022/10/17 01:05:38;;;;;;;20.33;16.87;;;15.40;99.90;;;;;;5081349;28;20688;-68
2022/10/17 01:08:05;;;;;;;23.40;15.87;;;15.40;99.90;;;;;;5087742;28;21072;-67
2022/10/17 01:10:40;;;;;;;18.13;16.50;;;15.40;99.90;;;;;;5084522;28;20466;-68
2022/10/17 01:13:13;;;;;;;17.00;15.40;;;15.40;99.90;;;;;;5084442;28;20492;-67
2022/10/17 01:15:52;;;;;;;28.50;17.13;;;15.40;99.90;;;;;;5090073;28;20485;-67
2022/10/17 01:18:32;;;;;;;16.57;15.20;;;15.40;99.90;;;;;;5082414;28;20462;-70
2022/10/17 01:21:28;;;;;;;17.00;15.40;;;15.40;99.90;;;;;;5076400;28;20485;-68
2022/10/17 01:24:18;;;;;;;15.93;14.60;;;15.40;99.90;;;;;;5090762;28;20492;-68
2022/10/17 01:26:58;;;;;;;17.27;15.53;;;15.40;99.90;;;;;;5078663;28;20799;-69
2022/10/17 01:29:47;;;;;;;22.77;14.63;;;15.40;99.90;;;;;;5093626;28;20487;-68
2022/10/17 01:32:18;;;;;;;17.70;16.00;;;15.40;99.90;;;;;;5073841;28;20464;-68
2022/10/17 01:34:50;;;;;;;16.90;15.50;;;15.40;99.90;;;;;;5076678;28;20486;-68
2022/10/17 01:37:23;;;;;;;17.23;15.30;;;15.40;99.90;;;;;;5085039;28;20454;-67
2022/10/17 01:39:54;;;;;;;16.60;15.40;;;15.40;99.90;;;;;;5088360;28;20527;-68
2022/10/17 01:42:26;;;;;;;18.27;16.77;;;15.40;99.90;;;;;;5079932;28;20462;-69
2022/10/17 01:44:59;;;;;;;18.17;16.33;;;15.40;99.90;;;;;;5089260;28;20476;-69
2022/10/17 01:47:30;;;;;;;15.80;14.70;;;15.40;99.90;;;;;;5072840;28;20477;-68
2022/10/17 01:50:00;;;;;;;16.40;15.13;;;15.40;99.90;;;;;;5079911;28;20882;-69
2022/10/17 01:52:29;;;;;;;17.03;15.70;;;15.30;99.90;;;;;;5084476;28;20459;-69
2022/10/17 01:55:03;;;;;;;16.63;15.27;;;15.40;99.90;;;;;;5089522;28;20522;-68
2022/10/17 01:57:34;;;;;;;17.50;16.20;;;15.40;99.90;;;;;;5087923;28;20487;-68
2022/10/17 02:00:02;;;;;;;16.07;14.73;;;15.40;99.90;;;;;;5083572;28;20458;-70
2022/10/17 02:02:32;;;;;;;15.77;14.60;;;15.40;99.90;;;;;;5085245;28;20462;-70
2022/10/17 02:05:01;;;;;;;19.40;15.37;;;15.40;99.90;;;;;;5086169;28;20472;-68
2022/10/17 02:07:28;;;;;;;16.63;14.77;;;15.40;99.90;;;;;;5085753;28;20462;-67
2022/10/17 02:09:55;;;;;;;17.33;15.37;;;15.40;99.90;;;;;;5090835;28;20982;-68
2022/10/17 02:12:41;;;;;;;15.87;14.77;;;15.40;99.90;;;;;;5089011;28;20468;-67
2022/10/17 02:15:27;;;;;;;17.30;15.70;;;15.30;99.90;;;;;;5082474;28;20513;-68
2022/10/17 02:18:07;;;;;;;16.80;15.20;;;15.30;99.90;;;;;;5076962;28;20461;-68
2022/10/17 02:20:44;;;;;;;15.93;14.57;;;15.40;99.90;;;;;;5083427;28;20456;-70
2022/10/17 02:23:16;;;;;;;16.23;15.03;;;15.40;99.90;;;;;;5082195;28;20481;-67
2022/10/17 02:25:47;;;;;;;15.30;14.17;;;15.40;99.90;;;;;;5082968;28;20472;-67
2022/10/17 02:28:20;;;;;;;18.60;15.27;;;15.40;99.90;;;;;;5089443;28;20487;-67
2022/10/17 02:30:51;;;;;;;17.70;16.00;;;15.40;99.90;;;;;;5091453;28;20993;-70
2022/10/17 02:33:25;;;;;;;16.17;14.67;;;15.40;99.90;;;;;;5090127;28;20584;-70
2022/10/17 02:35:56;;;;;;;17.53;15.73;;;15.40;99.90;;;;;;5075001;28;20522;-70
2022/10/17 02:38:24;;;;;;;17.23;14.60;;;15.40;99.90;;;;;;5084205;28;20469;-68
2022/10/17 02:40:53;;;;;;;16.90;15.30;;;15.40;99.90;;;;;;5086609;28;20464;-68
2022/10/17 02:43:21;;;;;;;17.07;15.43;;;15.40;99.90;;;;;;5091376;28;20492;-68
2022/10/17 02:45:48;;;;;;;18.30;16.50;;;15.30;99.90;;;;;;5097703;28;20824;-68
2022/10/17 02:48:23;;;;;;;18.10;16.33;;;15.30;99.90;;;;;;5093860;28;20740;-67
2022/10/17 02:50:58;;;;;;;17.20;15.80;;;15.30;99.90;;;;;;5087526;28;20456;-67
2022/10/17 02:53:32;;;;;;;16.67;15.07;;;15.30;99.90;;;;;;5080322;28;20459;-68
2022/10/17 02:56:04;;;;;;;21.67;15.30;;;15.20;99.90;;;;;;5083157;28;20481;-67
2022/10/17 02:58:34;;;;;;;17.77;16.10;;;15.20;99.90;;;;;;5091644;28;20460;-67
2022/10/17 03:01:01;;;;;;;16.80;15.17;;;15.20;99.90;;;;;;5077196;28;20866;-68
2022/10/17 03:03:31;;;;;;;19.70;15.23;;;15.20;99.90;;;;;;5085313;28;20988;-69
2022/10/17 03:05:58;;;;;;;32.17;16.53;;;15.30;99.90;;;;;;5082885;28;20450;-69
2022/10/17 03:08:25;;;;;;;16.73;15.17;;;15.30;99.90;;;;;;5085579;28;20488;-68
2022/10/17 03:10:52;;;;;;;17.13;15.17;;;15.30;99.90;;;;;;5083631;28;20474;-68
2022/10/17 03:13:19;;;;;;;16.17;14.93;;;15.30;99.90;;;;;;5075855;28;20469;-68
2022/10/17 03:15:46;;;;;;;17.10;15.63;;;15.30;99.90;;;;;;5089698;28;20492;-68
2022/10/17 03:18:13;;;;;;;17.57;15.90;;;15.20;99.90;;;;;;5087847;28;20461;-68
2022/10/17 03:20:41;;;;;;;16.73;15.20;;;15.20;99.90;;;;;;5081418;28;20545;-67
2022/10/17 03:23:08;;;;;;;22.33;15.20;;;15.30;99.90;;;;;;5086654;28;20750;-67
2022/10/17 03:25:37;;;;;;;17.17;15.67;;;15.30;99.90;;;;;;5088618;28;20468;-68
2022/10/17 03:28:05;;;;;;;17.87;16.00;;;15.30;99.90;;;;;;5096405;28;20491;-68
2022/10/17 03:30:31;;;;;;;17.47;16.00;;;15.30;99.90;;;;;;5111731;28;20511;-68
2022/10/17 03:32:58;;;;;;;18.07;16.57;;;15.30;99.90;;;;;;5111376;28;20461;-69
2022/10/17 03:35:25;;;;;;;18.10;16.13;;;15.30;99.90;;;;;;5112047;28;20487;-70
2022/10/17 03:37:55;;;;;;;17.37;16.17;;;15.20;99.90;;;;;;5109908;28;20569;-69
2022/10/17 03:40:23;;;;;;;18.50;16.53;;;15.30;99.90;;;;;;5114580;28;20467;-69
2022/10/17 03:42:50;;;;;;;17.53;15.77;;;15.30;99.90;;;;;;5114107;28;20966;-69
2022/10/17 03:45:17;;;;;;;17.43;16.10;;;15.30;99.90;;;;;;5113397;28;20596;-68
2022/10/17 03:47:44;;;;;;;18.90;17.13;;;15.30;99.90;;;;;;5115013;28;20488;-70
2022/10/17 03:50:11;;;;;;;18.17;16.87;;;15.30;99.90;;;;;;5113505;28;20513;-68
2022/10/17 03:52:38;;;;;;;17.20;15.70;;;15.30;99.90;;;;;;5114379;28;20472;-69
2022/10/17 03:55:07;;;;;;;19.83;17.80;;;15.30;99.90;;;;;;5112450;27;20488;-68
2022/10/17 03:57:36;;;;;;;19.27;17.20;;;15.30;99.90;;;;;;5111173;27;20465;-69
2022/10/17 04:00:05;;;;;;;17.53;16.23;;;15.30;99.90;;;;;;5118072;27;20487;-68
2022/10/17 04:02:33;;;;;;;18.13;16.63;;;15.30;99.90;;;;;;5111590;27;20508;-68
2022/10/17 04:05:00;;;;;;;19.30;17.40;;;15.30;99.90;;;;;;5105930;27;20464;-69
2022/10/17 04:07:27;;;;;;;18.90;17.50;;;15.30;99.90;;;;;;5107289;27;20456;-69
2022/10/17 04:09:54;;;;;;;22.63;17.30;;;15.30;99.90;;;;;;5110093;27;20527;-68
2022/10/17 04:12:23;;;;;;;18.67;16.73;;;15.30;99.90;;;;;;5113378;27;20465;-69
2022/10/17 04:14:50;;;;;;;16.77;15.67;;;15.30;99.90;;;;;;5113519;27;20492;-67
2022/10/17 04:17:18;;;;;;;17.77;16.30;;;15.30;99.90;;;;;;5108978;27;20449;-68
2022/10/17 04:19:44;;;;;;;18.30;16.67;;;15.30;99.90;;;;;;5111137;27;20576;-70
2022/10/17 04:22:11;;;;;;;18.40;16.90;;;15.30;99.90;;;;;;5107878;27;20464;-67
2022/10/17 04:24:38;;;;;;;18.63;17.13;;;15.30;99.90;;;;;;5111925;27;20476;-68
2022/10/17 04:27:04;;;;;;;18.57;16.93;;;15.30;99.90;;;;;;5112829;27;20516;-68
2022/10/17 04:29:33;;;;;;;18.70;16.87;;;15.30;99.90;;;;;;5108986;27;20672;-68
2022/10/17 04:31:59;;;;;;;19.47;17.50;;;15.30;99.90;;;;;;5108074;27;20867;-68
2022/10/17 04:34:26;;;;;;;19.43;17.83;;;15.30;99.90;;;;;;5107986;27;20457;-69
2022/10/17 04:36:53;;;;;;;21.20;16.97;;;15.40;99.90;;;;;;5112931;27;20488;-68
2022/10/17 04:39:20;;;;;;;17.83;16.30;;;15.50;99.90;;;;;;5113682;27;20460;-69
2022/10/17 04:41:46;;;;;;;19.03;17.10;;;15.50;99.90;;;;;;5114184;27;20453;-67
2022/10/17 04:44:13;;;;;;;19.80;16.50;;;15.50;99.90;;;;;;5116644;27;20971;-68
2022/10/17 04:46:41;;;;;;;20.63;16.67;;;15.50;99.90;;;;;;5107326;27;20483;-70
2022/10/17 04:49:09;;;;;;;18.47;16.40;;;15.50;99.90;;;;;;5108939;27;20463;-67
2022/10/17 04:51:36;;;;;;;20.47;17.23;;;15.50;99.90;;;;;;5114995;27;20483;-68
2022/10/17 04:54:03;;;;;;;17.50;16.10;;;15.50;99.90;;;;;;5113739;27;20940;-68
2022/10/17 04:56:29;;;;;;;19.60;17.70;;;15.50;99.90;;;;;;5109198;27;20570;-69
2022/10/17 04:58:58;;;;;;;19.00;17.10;;;15.50;99.90;;;;;;5113774;27;20503;-68
2022/10/17 05:01:26;;;;;;;19.10;17.27;;;15.50;99.90;;;;;;5113642;27;20461;-68
2022/10/17 05:03:55;;;;;;;17.20;15.77;;;15.60;99.90;;;;;;5114419;27;20514;-67
2022/10/17 05:06:24;;;;;;;18.10;16.20;;;15.50;99.90;;;;;;5111630;27;20464;-69
2022/10/17 05:08:51;;;;;;;16.27;14.80;;;15.50;99.90;;;;;;5112947;27;20464;-69
2022/10/17 05:11:19;;;;;;;21.43;16.47;;;15.50;99.90;;;;;;5112160;27;20828;-68
2022/10/17 05:13:50;;;;;;;16.43;15.00;;;15.50;99.90;;;;;;5109690;27;21009;-68
2022/10/17 05:16:17;;;;;;;18.27;15.77;;;15.60;99.90;;;;;;5114201;27;20485;-68
2022/10/17 05:18:43;;;;;;;18.17;16.30;;;15.50;99.90;;;;;;5115796;27;20460;-68
2022/10/17 05:21:12;;;;;;;19.43;15.83;;;15.60;99.90;;;;;;5116019;27;20457;-68
2022/10/17 05:23:39;;;;;;;16.87;15.37;;;15.60;99.90;;;;;;5110019;27;20540;-70
2022/10/17 05:26:06;;;;;;;34.83;16.53;;;15.60;99.90;;;;;;5110948;27;20484;-67
2022/10/17 05:28:33;;;;;;;19.97;14.53;;;15.70;99.90;;;;;;5094211;27;20493;-68
2022/10/17 05:31:03;;;;;;;22.03;16.00;;;15.70;99.90;;;;;;5082627;28;20820;-68
2022/10/17 05:33:30;;;;;;;15.77;14.00;;;15.70;99.90;;;;;;5077593;28;20490;-68
2022/10/17 05:35:57;;;;;;;18.07;15.43;;;15.60;99.90;;;;;;5074644;28;20494;-68
2022/10/17 05:38:26;;;;;;;19.60;16.57;;;15.50;99.90;;;;;;5076809;28;20482;-70
2022/10/17 05:40:56;;;;;;;16.53;15.13;;;15.50;99.90;;;;;;5080370;28;20466;-68
2022/10/17 05:43:23;;;;;;;16.10;14.70;;;15.40;99.90;;;;;;5079038;28;20469;-70
2022/10/17 05:45:51;;;;;;;17.77;16.23;;;15.30;99.90;;;;;;5080773;28;20896;-70
2022/10/17 05:48:18;;;;;;;16.27;14.87;;;15.20;99.90;;;;;;5083844;28;20935;-68
2022/10/17 05:50:45;;;;;;;15.90;14.10;;;15.30;99.90;;;;;;5079579;28;20462;-68
2022/10/17 05:53:12;;;;;;;15.33;13.97;;;15.40;99.90;;;;;;5080090;28;20466;-68
2022/10/17 05:55:41;;;;;;;16.20;14.77;;;15.40;99.90;;;;;;5081915;28;20498;-69
2022/10/17 05:58:08;;;;;;;16.00;14.47;;;15.40;99.90;;;;;;5083624;28;20500;-68
2022/10/17 06:00:35;;;;;;;16.07;14.43;;;15.30;99.90;;;;;;5087739;28;20461;-70
2022/10/17 06:03:02;;;;;;;15.53;14.37;;;15.30;99.90;;;;;;5080552;28;20961;-68
2022/10/17 06:05:29;;;;;;;15.30;14.00;;;15.30;99.90;;;;;;5079859;28;20477;-68
2022/10/17 06:07:57;;;;;;;16.13;14.47;;;15.30;99.90;;;;;;5075912;28;20867;-68
2022/10/17 06:10:24;;;;;;;15.20;13.80;;;15.30;99.90;;;;;;5085605;28;20454;-67
2022/10/17 06:12:53;;;;;;;19.30;14.00;;;15.30;99.90;;;;;;5083871;28;20496;-67
2022/10/17 06:15:20;;;;;;;14.60;13.40;;;15.30;99.90;;;;;;5079712;28;20969;-68
2022/10/17 06:17:47;;;;;;;16.23;14.87;;;15.30;99.90;;;;;;5079265;28;20980;-69
2022/10/17 06:20:15;;;;;;;17.17;14.83;;;15.30;99.90;;;;;;5081683;28;20585;-69
2022/10/17 06:22:42;;;;;;;15.43;13.80;;;15.40;99.90;;;;;;5082833;28;20896;-69
2022/10/17 06:25:09;;;;;;;23.23;14.40;;;15.40;99.90;;;;;;5085639;28;20553;-68
2022/10/17 06:27:36;;;;;;;19.03;13.40;;;15.50;99.90;;;;;;5086760;28;20515;-69
2022/10/17 06:30:05;;;;;;;18.07;14.20;;;15.60;99.90;;;;;;5114295;27;20461;-69
2022/10/17 06:32:32;;;;;;;18.10;13.00;;;15.70;99.90;;;;;;5112871;27;20836;-70
2022/10/17 06:34:59;;;;;;;16.30;12.40;;;15.70;99.90;;;;;;5107930;27;21055;-69
2022/10/17 06:37:30;;;;;;;16.57;13.93;;;15.70;99.90;;;;;;5111967;27;20492;-70
2022/10/17 06:39:57;;;;;;;18.30;13.87;;;15.80;99.90;;;;;;5111343;27;20681;-68
2022/10/17 06:42:24;;;;;;;13.93;12.33;;;15.80;99.90;;;;;;5113949;27;20464;-70
2022/10/17 06:44:51;;;;;;;16.07;13.60;;;15.80;99.90;;;;;;5111119;27;20807;-69
2022/10/17 06:47:19;;;;;;;23.27;12.40;;;15.90;99.90;;;;;;5108579;28;21182;-68
2022/10/17 06:49:46;;;;;;;20.00;12.80;;;15.90;99.90;;;;;;5109580;27;20959;-70
2022/10/17 06:52:13;;;;;;;16.17;11.23;;;16.00;99.90;;;;;;5103674;27;20464;-68
2022/10/17 06:54:40;;;;;;;13.17;11.90;;;16.10;99.90;;;;;;5109727;27;20806;-68
2022/10/17 06:57:07;;;;;;;15.57;12.60;;;16.20;99.90;;;;;;5110333;27;20490;-70
2022/10/17 06:59:34;;;;;;;24.30;12.13;;;16.30;99.90;;;;;;5107838;28;20460;-69
2022/10/17 07:02:01;;;;;;;18.57;11.90;;;16.30;99.90;;;;;;5103685;27;20460;-68
2022/10/17 07:04:29;;;;;;;17.70;12.17;;;16.40;99.90;;;;;;5109149;27;20833;-70
2022/10/17 07:06:56;;;;;;;20.73;12.10;;;16.40;99.90;;;;;;5112628;28;20457;-70
2022/10/17 07:09:23;;;;;;;20.97;12.53;;;16.30;99.90;;;;;;5108152;28;20472;-68
2022/10/17 07:11:50;;;;;;;13.87;11.90;;;16.40;99.90;;;;;;5107458;28;20461;-69
2022/10/17 07:14:17;;;;;;;18.20;10.70;;;16.50;99.90;;;;;;5108621;28;20538;-69
2022/10/17 07:16:45;;;;;;;20.43;11.10;;;16.60;99.90;;;;;;5108818;28;20905;-68
2022/10/17 07:19:11;;;;;;;15.10;11.50;;;16.60;99.90;;;;;;5105019;28;20548;-68
2022/10/17 07:21:40;;;;;;;19.37;12.23;;;16.70;99.90;;;;;;5105976;28;20459;-70
2022/10/17 07:24:07;;;;;;;22.17;11.80;;;16.70;99.90;;;;;;5105301;28;20563;-68
2022/10/17 07:26:33;;;;;;;19.37;11.93;;;16.80;99.90;;;;;;5108354;28;20508;-68
2022/10/17 07:29:00;;;;;;;15.27;11.90;;;16.80;99.90;;;;;;5112876;28;20497;-68
2022/10/17 07:31:27;;;;;;;12.40;11.50;;;16.80;99.90;;;;;;5102998;27;20932;-67
2022/10/17 07:33:55;;;;;;;19.33;11.77;;;16.80;99.90;;;;;;5106640;27;20465;-70
2022/10/17 07:36:22;;;;;;;13.30;11.57;;;16.90;99.90;;;;;;5109657;27;21010;-70
2022/10/17 07:38:51;;;;;;;13.60;11.10;;;16.90;99.90;;;;;;5115384;27;20451;-70
2022/10/17 07:41:18;;;;;;;15.70;11.53;;;16.90;99.90;;;;;;5114496;27;21462;-69
2022/10/17 07:43:45;;;;;;;14.43;11.47;;;17.00;99.90;;;;;;5115223;27;20536;-67
2022/10/17 07:46:13;;;;;;;15.10;12.30;;;17.10;99.90;;;;;;5111320;27;20467;-69
2022/10/17 07:48:40;;;;;;;13.50;12.20;;;17.20;99.90;;;;;;5108105;27;20976;-68
2022/10/17 07:51:09;;;;;;;12.30;11.10;;;17.20;99.90;;;;;;5112318;27;20473;-68
2022/10/17 07:53:36;;;;;;;13.70;12.40;;;17.30;99.90;;;;;;5108639;27;20833;-68
2022/10/17 07:56:06;;;;;;;16.67;11.70;;;17.40;99.90;;;;;;5109151;27;20494;-68
2022/10/17 07:58:33;;;;;;;16.30;12.60;;;17.50;99.90;;;;;;5108804;27;20926;-68
2022/10/17 08:01:02;;;;;;;15.70;12.47;;;17.60;99.90;;;;;;5105473;27;20771;-68
2022/10/17 08:03:29;;;;;;;13.87;12.57;;;17.70;99.90;;;;;;5108424;27;20460;-68
2022/10/17 08:05:58;;;;;;;14.57;13.37;;;17.80;99.90;;;;;;5106945;27;20556;-69
2022/10/17 08:08:25;;;;;;;14.17;12.87;;;17.90;99.90;;;;;;5107696;27;20500;-68
2022/10/17 08:10:52;;;;;;;14.23;12.60;;;18.00;99.90;;;;;;5111282;27;20465;-69
2022/10/17 08:13:21;;;;;;;13.33;12.03;;;18.00;99.90;;;;;;5111040;27;20468;-69
2022/10/17 08:15:48;;;;;;;13.37;12.27;;;18.10;99.90;;;;;;5108912;27;20840;-68
2022/10/17 08:18:15;;;;;;;22.33;13.93;;;18.10;99.90;;;;;;5105367;27;20468;-70
2022/10/17 08:20:42;;;;;;;15.73;14.00;;;18.20;99.90;;;;;;5112242;27;20453;-68
2022/10/17 08:23:09;;;;;;;18.67;12.57;;;18.20;99.90;;;;;;5110839;27;20529;-68
2022/10/17 08:25:38;;;;;;;15.93;14.63;;;18.30;99.90;;;;;;5107687;27;20853;-68
2022/10/17 08:28:06;;;;;;;14.37;13.13;;;18.50;99.90;;;;;;5109513;27;20476;-69
2022/10/17 08:30:35;;;;;;;14.43;13.43;;;18.50;99.90;;;;;;5107476;27;20457;-71
2022/10/17 08:33:02;;;;;;;14.53;13.13;;;18.70;99.90;;;;;;5105996;27;20460;-69
2022/10/17 08:35:29;;;;;;;14.47;13.13;;;18.90;99.90;;;;;;5105887;27;20485;-68
2022/10/17 08:38:00;;;;;;;15.40;13.93;;;19.10;99.90;;;;;;5108444;27;20488;-69
2022/10/17 08:40:29;;;;;;;15.57;14.17;;;19.20;99.90;;;;;;5110684;27;20458;-69
2022/10/17 08:43:14;;;;;;;15.60;14.20;;;19.40;99.90;;;;;;5107278;27;20471;-69
2022/10/17 08:45:47;;;;;;;17.07;15.53;;;19.50;99.90;;;;;;5105057;27;20457;-69
2022/10/17 08:48:17;;;;;;;17.33;15.57;;;19.70;99.90;;;;;;5102874;27;20473;-70
2022/10/17 08:50:49;;;;;;;16.00;14.50;;;19.80;99.90;;;;;;5106148;28;20453;-68
2022/10/17 08:53:21;;;;;;;16.03;14.93;;;19.90;99.90;;;;;;5108931;27;20586;-69
2022/10/17 08:55:49;;;;;;;15.83;14.47;;;20.00;99.90;;;;;;5109011;27;20461;-68
2022/10/17 08:58:20;;;;;;;15.90;14.67;;;20.10;99.90;;;;;;5111925;27;20495;-69
2022/10/17 09:00:57;;;;;;;16.93;15.07;;;20.20;99.90;;;;;;5107537;27;20466;-69
2022/10/17 09:03:39;;;;;;;18.40;14.93;;;20.30;99.90;;;;;;5109269;27;20496;-70
2022/10/17 09:06:17;;;;;;;15.93;14.73;;;20.30;99.90;;;;;;5108483;28;20457;-68
2022/10/17 09:08:51;;;;;;;16.77;15.30;;;20.50;99.90;;;;;;5116611;27;20453;-70
2022/10/17 09:11:33;;;;;;;17.53;15.90;;;20.90;99.90;;;;;;5111907;27;20466;-70
2022/10/17 09:14:11;;;;;;;17.10;15.37;;;21.10;99.90;;;;;;5104539;27;20453;-68
2022/10/17 09:16:56;;;;;;;17.87;15.67;;;21.10;99.90;;;;;;5106063;27;20510;-70
2022/10/17 09:19:28;;;;;;;19.13;16.13;;;21.10;99.90;;;;;;5107365;27;20457;-71
2022/10/17 09:21:58;;;;;;;17.43;15.80;;;21.20;99.90;;;;;;5107568;27;20863;-70
2022/10/17 09:24:36;;;;;;;16.50;15.50;;;21.20;99.90;;;;;;5109230;27;20510;-71
2022/10/17 09:27:03;;;;;;;17.37;16.00;;;21.10;99.90;;;;;;5110417;27;20604;-70
2022/10/17 09:29:30;;;;;;;18.50;15.30;;;21.20;99.90;;;;;;5106077;27;20469;-72
2022/10/17 09:32:03;;;;;;;17.00;15.40;;;21.20;99.90;;;;;;5106256;27;20826;-69
2022/10/17 09:34:32;;;;;;;22.93;17.17;;;21.40;99.90;;;;;;5107224;27;21014;-72
2022/10/17 09:37:00;;;;;;;17.80;15.83;;;21.40;99.90;;;;;;5107043;27;20512;-69
2022/10/17 09:39:30;;;;;;;18.83;16.10;;;21.40;99.90;;;;;;5103941;27;20455;-70
2022/10/17 09:41:59;;;;;;;17.43;15.83;;;21.30;99.90;;;;;;5108284;27;20899;-70
2022/10/17 09:44:30;;;;;;;17.20;15.50;;;21.20;99.90;;;;;;5110008;27;20947;-70
2022/10/17 09:47:13;;;;;;;19.03;15.40;;;21.40;99.90;;;;;;5106666;27;20484;-69
2022/10/17 09:49:41;;;;;;;22.53;15.40;;;21.50;99.90;;;;;;5108642;27;20809;-71
2022/10/17 09:52:14;;;;;;;19.17;15.43;;;21.40;99.90;;;;;;5106041;27;20904;-69
2022/10/17 09:54:44;;;;;;;17.27;15.50;;;21.30;99.90;;;;;;5106224;27;20464;-70
2022/10/17 09:57:12;;;;;;;16.87;15.40;;;21.20;99.90;;;;;;5104666;27;20562;-70
2022/10/17 09:59:42;;;;;;;17.50;16.20;;;21.10;99.90;;;;;;5106116;27;20465;-69
2022/10/17 10:02:18;;;;;;;20.97;16.10;;;21.10;99.90;;;;;;5108476;27;21047;-69
2022/10/17 10:05:00;;;;;;;17.17;15.60;;;21.20;99.90;;;;;;5107253;27;20464;-69
2022/10/17 10:07:29;;;;;;;19.53;16.00;;;21.30;99.90;;;;;;5109856;27;20463;-69
2022/10/17 10:09:57;;;;;;;17.47;15.67;;;21.30;99.90;;;;;;5108545;27;20962;-70
2022/10/17 10:12:27;;;;;;;17.03;15.00;;;21.40;99.90;;;;;;5106581;27;20531;-70
2022/10/17 10:14:54;;;;;;;16.80;15.50;;;21.50;99.90;;;;;;5110516;27;20529;-70
2022/10/17 10:17:40;;;;;;;16.50;15.10;;;21.70;99.90;;;;;;5105034;27;20473;-70
2022/10/17 10:20:26;;;;;;;28.27;16.67;;;21.80;99.90;;;;;;5107951;27;20461;-70
2022/10/17 10:23:16;;;;;;;22.23;17.60;;;21.90;99.90;;;;;;5110130;27;20487;-69
2022/10/17 10:25:58;;;;;;;38.83;17.97;;;22.10;99.90;;;;;;5102036;27;20467;-72
2022/10/17 10:28:28;;;;;;;27.40;17.33;;;22.20;99.90;;;;;;5109025;27;20560;-69
2022/10/17 10:30:57;;;;;;;17.80;15.10;;;22.30;99.90;;;;;;5101276;27;20859;-70
2022/10/17 10:33:28;;;;;;;16.40;15.13;;;22.30;99.90;;;;;;5106948;27;20476;-69
2022/10/17 10:35:58;;;;;;;16.97;15.67;;;22.30;99.90;;;;;;5108473;27;20990;-70
2022/10/17 10:38:25;;;;;;;17.80;15.93;;;22.30;99.90;;;;;;5093096;27;21050;-69
2022/10/17 10:40:54;;;;;;;19.23;15.73;;;22.30;99.90;;;;;;5107527;27;20766;-70
2022/10/17 10:43:26;;;;;;;15.83;14.83;;;22.10;99.90;;;;;;5112540;27;20456;-70
2022/10/17 10:45:55;;;;;;;16.37;15.37;;;22.00;99.90;;;;;;5105489;27;20963;-71
2022/10/17 10:48:24;;;;;;;15.43;14.53;;;22.00;99.90;;;;;;5112168;27;20460;-69
2022/10/17 10:50:56;;;;;;;15.80;14.70;;;22.00;99.90;;;;;;5106498;27;20506;-69
2022/10/17 10:53:32;;;;;;;16.17;15.17;;;21.70;99.90;;;;;;5106152;27;20490;-70
2022/10/17 10:56:03;;;;;;;16.23;15.23;;;21.70;99.90;;;;;;5106110;27;20955;-72
2022/10/17 10:58:40;;;;;;;16.73;15.47;;;21.70;99.90;;;;;;5103391;27;20489;-70
2022/10/17 11:01:13;;;;;;;15.90;14.90;;;21.50;99.90;;;;;;5102739;28;20503;-68
2022/10/17 11:03:42;;;;;;;16.77;15.40;;;21.40;99.90;;;;;;5107493;28;20464;-71
2022/10/17 11:06:18;;;;;;;16.87;15.80;;;21.30;99.90;;;;;;5108994;28;20833;-70
2022/10/17 11:08:49;;;;;;;16.67;15.27;;;21.20;99.90;;;;;;5107972;28;20463;-69
2022/10/17 11:11:23;;;;;;;17.20;15.80;;;21.10;99.90;;;;;;5107400;28;20465;-71
2022/10/17 11:13:58;;;;;;;16.80;15.30;;;21.10;99.90;;;;;;5102837;28;20929;-69
2022/10/17 11:16:32;;;;;;;16.20;14.63;;;21.10;99.90;;;;;;5098300;28;20469;-71
2022/10/17 11:19:08;;;;;;;17.30;16.00;;;21.10;99.90;;;;;;5108770;28;20493;-70
2022/10/17 11:21:45;;;;;;;18.87;17.00;;;21.20;99.90;;;;;;5107571;28;20453;-71
2022/10/17 11:24:19;;;;;;;17.47;16.00;;;21.30;99.90;;;;;;5111718;28;20472;-70
2022/10/17 11:26:52;;;;;;;22.83;15.90;;;21.50;99.90;;;;;;5109822;28;20954;-70
2022/10/17 11:29:19;;;;;;;16.77;15.43;;;21.70;99.90;;;;;;5108729;28;20488;-69
2022/10/17 11:31:51;;;;;;;17.67;16.03;;;21.80;99.90;;;;;;5107651;28;20500;-69
2022/10/17 11:34:23;;;;;;;16.80;15.10;;;21.80;99.90;;;;;;5105652;28;20483;-69
2022/10/17 11:36:56;;;;;;;16.67;15.40;;;22.00;99.90;;;;;;5105213;28;20967;-71
2022/10/17 11:39:30;;;;;;;17.23;15.97;;;22.10;99.90;;;;;;5110708;28;20461;-68
2022/10/17 11:42:02;;;;;;;16.87;15.60;;;22.20;99.90;;;;;;5108652;28;20467;-70
2022/10/17 11:44:34;;;;;;;17.10;15.57;;;22.00;99.90;;;;;;5110172;28;20452;-68
2022/10/17 11:47:06;;;;;;;16.00;14.80;;;22.00;99.90;;;;;;5108647;28;20457;-68
2022/10/17 11:49:38;;;;;;;16.47;15.17;;;22.00;99.90;;;;;;5108180;28;20854;-69
2022/10/17 11:52:19;;;;;;;17.87;15.73;;;21.90;99.90;;;;;;5105380;28;20453;-70
2022/10/17 11:54:52;;;;;;;15.60;14.50;;;22.00;99.90;;;;;;5107276;28;20724;-69
2022/10/17 11:57:37;;;;;;;16.27;15.27;;;22.10;99.90;;;;;;5101812;28;20479;-69
2022/10/17 12:00:21;;;;;;;15.87;14.77;;;22.00;99.90;;;;;;5103076;28;20461;-68
2022/10/17 12:02:57;;;;;;;15.90;14.57;;;21.90;99.90;;;;;;5103359;28;20472;-68
2022/10/17 12:05:33;;;;;;;17.93;13.93;;;21.80;99.90;;;;;;5106738;28;20471;-68
2022/10/17 12:08:09;;;;;;;21.47;13.80;;;21.70;99.90;;;;;;5101991;28;20456;-71
2022/10/17 12:10:45;;;;;;;15.70;14.30;;;21.70;99.90;;;;;;5099035;28;20864;-68
2022/10/17 12:13:48;;;;;;;14.77;13.87;;;21.60;99.90;;;;;;5104665;28;20467;-70
2022/10/17 12:16:43;;;;;;;14.70;13.90;;;21.60;99.90;;;;;;5095739;27;20456;-72
2022/10/17 12:19:31;;;;;;;15.03;13.70;;;21.60;99.90;;;;;;5085664;27;20860;-72
2022/10/17 12:22:05;;;;;;;14.30;13.53;;;21.50;99.90;;;;;;5105924;27;20971;-68
2022/10/17 12:24:38;;;;;;;14.93;13.73;;;21.50;99.90;;;;;;5110641;27;20529;-68
2022/10/17 12:27:41;;;;;;;13.97;13.07;;;21.30;99.90;;;;;;5113413;27;20856;-68
2022/10/17 12:30:18;;;;;;;14.37;13.47;;;21.30;99.90;;;;;;5102622;27;20734;-68
2022/10/17 12:33:20;;;;;;;14.43;13.23;;;21.30;99.90;;;;;;5104199;27;21066;-67
2022/10/17 12:35:47;;;;;;;14.90;13.30;;;21.40;99.90;;;;;;5089662;27;20471;-71
2022/10/17 12:38:24;;;;;;;14.67;13.57;;;21.40;99.90;;;;;;5105100;27;20495;-70
2022/10/17 12:40:54;;;;;;;14.17;13.23;;;21.50;99.90;;;;;;5103562;27;20681;-68
2022/10/17 12:43:52;;;;;;;14.70;13.50;;;21.60;99.90;;;;;;5103066;27;20540;-67
2022/10/17 12:46:46;;;;;;;13.73;12.93;;;21.60;99.90;;;;;;5101182;27;20661;-67